createdAt,value
2023-05-14T00:00:29.842Z,17.09
2023-05-14T00:02:56.657Z,17.08
2023-05-14T00:05:23.206Z,16.88
2023-05-14T00:07:49.572Z,17.04
2023-05-14T00:10:15.959Z,17.04
2023-05-14T00:12:42.371Z,17.12
2023-05-14T00:15:08.875Z,17.17
2023-05-14T00:17:35.318Z,17.20
2023-05-14T00:20:01.712Z,17.25
2023-05-14T00:22:28.138Z,17.30
2023-05-14T00:24:54.512Z,17.32
2023-05-14T00:27:20.897Z,17.35
2023-05-14T00:29:47.376Z,17.38
2023-05-14T00:32:13.797Z,17.37
2023-05-14T00:34:40.477Z,17.35
2023-05-14T00:37:06.878Z,17.36
2023-05-14T00:39:33.249Z,17.36
2023-05-14T00:41:59.631Z,17.40
2023-05-14T00:44:26.024Z,17.41
2023-05-14T00:46:52.454Z,17.39
2023-05-14T00:49:19.108Z,17.36
2023-05-14T00:51:45.602Z,17.41
2023-05-14T00:54:11.977Z,17.44
2023-05-14T00:56:38.406Z,17.34
2023-05-14T00:59:04.821Z,17.27
2023-05-14T01:01:31.201Z,17.21
2023-05-14T01:03:57.997Z,17.24
2023-05-14T01:06:24.551Z,17.35
2023-05-14T01:08:50.930Z,17.21
2023-05-14T01:11:17.306Z,17.12
2023-05-14T01:13:43.696Z,16.82
2023-05-14T01:16:10.124Z,17.05
2023-05-14T01:18:36.619Z,17.14
2023-05-14T01:21:03.067Z,16.92
2023-05-14T01:23:29.511Z,16.82
2023-05-14T01:25:55.900Z,16.69
2023-05-14T01:28:22.280Z,16.84
2023-05-14T01:30:48.706Z,16.89
2023-05-14T01:33:15.129Z,16.97
2023-05-14T01:35:41.510Z,17.03
2023-05-14T01:38:07.881Z,17.03
2023-05-14T01:40:34.320Z,17.03
2023-05-14T01:43:00.759Z,16.83
2023-05-14T01:45:27.181Z,16.90
2023-05-14T01:47:53.616Z,16.91
2023-05-14T01:50:20.128Z,16.91
2023-05-14T01:52:46.499Z,16.89
2023-05-14T01:55:12.891Z,17.03
2023-05-14T01:57:39.311Z,17.08
2023-05-14T02:00:05.739Z,17.05
2023-05-14T02:02:32.108Z,17.07
2023-05-14T02:04:58.570Z,17.11
2023-05-14T02:07:25.005Z,17.09
2023-05-14T02:09:51.398Z,17.10
2023-05-14T02:12:17.778Z,17.14
2023-05-14T02:14:44.216Z,17.12
2023-05-14T02:17:10.571Z,17.12
2023-05-14T02:19:36.958Z,17.10
2023-05-14T02:22:03.410Z,17.16
2023-05-14T02:24:29.796Z,17.10
2023-05-14T02:26:56.178Z,17.08
2023-05-14T02:29:22.569Z,17.11
2023-05-14T02:31:49.062Z,17.13
2023-05-14T02:34:15.444Z,17.10
2023-05-14T02:36:41.837Z,17.12
2023-05-14T02:39:08.234Z,17.12
2023-05-14T02:41:34.657Z,17.15
2023-05-14T02:44:01.063Z,17.11
2023-05-14T02:46:27.519Z,17.06
2023-05-14T02:48:53.918Z,17.05
2023-05-14T02:51:20.416Z,17.07
2023-05-14T02:53:46.820Z,17.09
2023-05-14T02:56:13.251Z,17.02
2023-05-14T02:58:39.650Z,17.04
2023-05-14T03:01:06.084Z,16.96
2023-05-14T03:03:33.190Z,16.98
2023-05-14T03:06:00.048Z,17.01
2023-05-14T03:08:26.562Z,16.95
2023-05-14T03:10:52.928Z,17.01
2023-05-14T03:13:19.324Z,16.99
2023-05-14T03:15:45.769Z,17.01
2023-05-14T03:18:12.152Z,17.01
2023-05-14T03:20:38.530Z,16.98
2023-05-14T03:23:04.893Z,16.91
2023-05-14T03:25:31.277Z,16.95
2023-05-14T03:27:57.653Z,16.93
2023-05-14T03:30:24.368Z,16.94
2023-05-14T03:32:51.035Z,17.01
2023-05-14T03:35:17.443Z,16.83
2023-05-14T03:37:43.807Z,16.82
2023-05-14T03:40:10.240Z,16.75
2023-05-14T03:42:36.631Z,16.74
2023-05-14T03:45:02.996Z,16.61
2023-05-14T03:47:29.469Z,16.67
2023-05-14T03:49:55.861Z,16.64
2023-05-14T03:52:22.260Z,16.67
2023-05-14T03:54:48.647Z,16.68
2023-05-14T03:57:15.022Z,16.75
2023-05-14T03:59:41.454Z,16.81
2023-05-14T04:02:07.895Z,16.87
2023-05-14T04:04:34.276Z,16.82
2023-05-14T04:07:00.708Z,16.80
2023-05-14T04:09:27.109Z,16.84
2023-05-14T04:11:53.533Z,16.84
2023-05-14T04:14:19.908Z,16.85
2023-05-14T04:16:46.415Z,16.84
2023-05-14T04:19:12.978Z,16.90
2023-05-14T04:21:39.607Z,16.78
2023-05-14T04:24:06.041Z,16.79
2023-05-14T04:26:32.427Z,16.91
2023-05-14T04:28:58.863Z,16.90
2023-05-14T04:31:25.286Z,16.92
2023-05-14T04:33:51.672Z,16.84
2023-05-14T04:36:18.050Z,16.93
2023-05-14T04:38:44.476Z,16.94
2023-05-14T04:41:10.865Z,16.98
2023-05-14T04:43:37.251Z,16.66
2023-05-14T04:46:03.699Z,16.73
2023-05-14T04:48:30.079Z,16.66
2023-05-14T04:50:56.481Z,16.71
2023-05-14T04:53:22.908Z,16.64
2023-05-14T04:55:49.322Z,16.70
2023-05-14T04:58:15.706Z,16.71
2023-05-14T05:00:42.083Z,16.74
2023-05-14T05:03:08.553Z,16.70
2023-05-14T05:05:35.055Z,16.73
2023-05-14T05:08:01.436Z,16.78
2023-05-14T05:10:27.805Z,16.73
2023-05-14T05:12:54.172Z,16.74
2023-05-14T05:15:20.521Z,16.78
2023-05-14T05:17:46.921Z,16.79
2023-05-14T05:20:13.367Z,16.70
2023-05-14T05:22:39.790Z,16.77
2023-05-14T05:25:06.192Z,16.52
2023-05-14T05:27:32.622Z,16.57
2023-05-14T05:29:58.980Z,16.65
2023-05-14T05:32:25.379Z,16.72
2023-05-14T05:34:51.805Z,16.77
2023-05-14T05:37:18.187Z,16.78
2023-05-14T05:39:44.551Z,16.77
2023-05-14T05:42:11.042Z,16.57
2023-05-14T05:44:37.426Z,16.67
2023-05-14T05:47:03.876Z,16.53
2023-05-14T05:49:30.363Z,16.57
2023-05-14T05:51:56.776Z,16.61
2023-05-14T05:54:23.220Z,16.51
2023-05-14T05:56:49.601Z,16.56
2023-05-14T05:59:15.986Z,16.55
2023-05-14T06:01:42.608Z,16.42
2023-05-14T06:04:08.977Z,16.63
2023-05-14T06:06:35.402Z,16.57
2023-05-14T06:09:01.845Z,16.73
2023-05-14T06:11:28.238Z,16.70
2023-05-14T06:13:54.710Z,16.84
2023-05-14T06:16:21.299Z,16.84
2023-05-14T06:18:47.816Z,16.92
2023-05-14T06:21:14.241Z,16.99
2023-05-14T06:23:40.684Z,16.96
2023-05-14T06:26:07.065Z,17.15
2023-05-14T06:28:33.587Z,17.27
2023-05-14T06:31:00.012Z,17.22
2023-05-14T06:33:26.410Z,17.24
2023-05-14T06:35:52.801Z,17.29
2023-05-14T06:38:19.232Z,17.36
2023-05-14T06:40:45.619Z,17.48
2023-05-14T06:43:12.004Z,17.60
2023-05-14T06:45:38.398Z,17.56
2023-05-14T06:48:04.893Z,17.72
2023-05-14T06:50:31.399Z,17.52
2023-05-14T06:52:57.906Z,17.58
2023-05-14T06:55:24.345Z,17.26
2023-05-14T06:57:50.728Z,17.43
2023-05-14T07:00:17.209Z,17.54
2023-05-14T07:02:43.704Z,17.75
2023-05-14T07:05:10.187Z,17.61
2023-05-14T07:07:36.631Z,17.78
2023-05-14T07:10:03.073Z,17.89
2023-05-14T07:12:29.478Z,17.98
2023-05-14T07:14:55.874Z,18.12
2023-05-14T07:17:22.408Z,18.16
2023-05-14T07:19:48.879Z,18.19
2023-05-14T07:22:15.268Z,18.29
2023-05-14T07:24:41.680Z,18.34
2023-05-14T07:27:08.071Z,18.26
2023-05-14T07:29:34.458Z,18.25
2023-05-14T07:32:00.872Z,18.24
2023-05-14T07:34:27.386Z,18.26
2023-05-14T07:36:53.847Z,18.31
2023-05-14T07:39:20.285Z,18.49
2023-05-14T07:41:46.723Z,18.68
2023-05-14T07:44:13.110Z,18.61
2023-05-14T07:46:39.545Z,18.46
2023-05-14T07:49:05.916Z,18.56
2023-05-14T07:51:32.373Z,18.33
2023-05-14T07:53:58.770Z,18.70
2023-05-14T07:56:25.132Z,18.63
2023-05-14T07:58:51.491Z,18.79
2023-05-14T08:01:17.897Z,19.02
2023-05-14T08:03:44.405Z,18.99
2023-05-14T08:06:11.095Z,19.05
2023-05-14T08:08:37.477Z,19.23
2023-05-14T08:11:03.894Z,19.20
2023-05-14T08:13:30.312Z,19.17
2023-05-14T08:15:56.727Z,19.15
2023-05-14T08:18:23.219Z,19.50
2023-05-14T08:20:49.575Z,19.50
2023-05-14T08:23:15.974Z,19.44
2023-05-14T08:25:42.370Z,19.63
2023-05-14T08:28:08.825Z,19.61
2023-05-14T08:30:35.290Z,19.64
2023-05-14T08:33:01.743Z,19.76
2023-05-14T08:35:28.210Z,19.86
2023-05-14T08:37:54.596Z,19.63
2023-05-14T08:40:20.989Z,19.85
2023-05-14T08:42:47.425Z,19.74
2023-05-14T08:45:13.816Z,19.57
2023-05-14T08:47:40.227Z,19.06
2023-05-14T08:50:06.612Z,19.32
2023-05-14T08:52:32.982Z,19.47
2023-05-14T08:54:59.360Z,19.63
2023-05-14T08:57:25.767Z,19.84
2023-05-14T08:59:52.222Z,20.03
2023-05-14T09:02:18.606Z,19.89
2023-05-14T09:04:45.034Z,19.91
2023-05-14T09:07:11.481Z,19.41
2023-05-14T09:09:37.890Z,19.72
2023-05-14T09:12:04.353Z,19.99
2023-05-14T09:14:30.744Z,19.30
2023-05-14T09:16:57.137Z,19.54
2023-05-14T09:19:23.789Z,19.70
2023-05-14T09:21:50.304Z,19.85
2023-05-14T09:24:16.680Z,19.72
2023-05-14T09:26:43.047Z,19.54
2023-05-14T09:29:09.436Z,19.49
2023-05-14T09:31:35.839Z,19.49
2023-05-14T09:34:02.251Z,19.65
2023-05-14T09:36:28.652Z,19.11
2023-05-14T09:38:55.051Z,19.02
2023-05-14T09:41:21.466Z,19.30
2023-05-14T09:43:47.863Z,19.15
2023-05-14T09:46:14.258Z,18.73
2023-05-14T09:48:40.737Z,18.75
2023-05-14T09:51:07.144Z,18.98
2023-05-14T09:53:33.580Z,19.26
2023-05-14T09:56:00.026Z,19.12
2023-05-14T09:58:26.414Z,19.27
2023-05-14T10:00:52.846Z,19.61
2023-05-14T10:03:20.093Z,19.69
2023-05-14T10:05:46.830Z,20.07
2023-05-14T10:08:13.243Z,20.34
2023-05-14T10:10:39.651Z,20.65
2023-05-14T10:13:06.046Z,20.47
2023-05-14T10:15:32.707Z,20.53
2023-05-14T10:17:59.184Z,20.87
2023-05-14T10:20:25.960Z,20.75
2023-05-14T10:22:52.605Z,20.81
2023-05-14T10:25:19.073Z,21.20
2023-05-14T10:27:45.509Z,21.42
2023-05-14T10:30:12.041Z,21.61
2023-05-14T10:32:38.458Z,21.40
2023-05-14T10:35:04.924Z,21.22
2023-05-14T10:37:31.309Z,21.84
2023-05-14T10:39:57.817Z,22.28
2023-05-14T10:42:24.323Z,22.11
2023-05-14T10:44:50.705Z,21.59
2023-05-14T10:47:17.107Z,21.18
2023-05-14T10:49:44.115Z,21.29
2023-05-14T10:52:10.550Z,21.65
2023-05-14T10:54:36.988Z,21.39
2023-05-14T10:57:03.398Z,21.13
2023-05-14T10:59:29.804Z,21.54
2023-05-14T11:01:56.311Z,21.11
2023-05-14T11:04:22.742Z,21.19
2023-05-14T11:06:49.133Z,21.57
2023-05-14T11:09:15.494Z,21.20
2023-05-14T11:11:41.892Z,21.28
2023-05-14T11:14:10.124Z,20.99
2023-05-14T11:16:36.851Z,20.81
2023-05-14T11:19:03.540Z,21.06
2023-05-14T11:21:30.296Z,21.32
2023-05-14T11:23:56.804Z,21.30
2023-05-14T11:26:23.294Z,21.57
2023-05-14T11:28:49.745Z,21.91
2023-05-14T11:31:16.215Z,21.85
2023-05-14T11:33:42.623Z,22.07
2023-05-14T11:36:08.986Z,22.14
2023-05-14T11:38:35.382Z,22.08
2023-05-14T11:41:01.786Z,22.16
2023-05-14T11:43:28.164Z,22.12
2023-05-14T11:45:54.675Z,22.34
2023-05-14T11:48:21.046Z,22.46
2023-05-14T11:50:47.448Z,22.64
2023-05-14T11:53:13.822Z,22.65
2023-05-14T11:55:40.208Z,22.82
2023-05-14T11:58:06.678Z,22.84
2023-05-14T12:00:33.110Z,22.93
2023-05-14T12:02:59.592Z,23.10
2023-05-14T12:05:26.031Z,23.36
2023-05-14T12:07:52.463Z,23.11
2023-05-14T12:10:18.902Z,22.96
2023-05-14T12:12:45.298Z,22.74
2023-05-14T12:15:11.677Z,22.87
2023-05-14T12:17:38.133Z,22.78
2023-05-14T12:20:04.577Z,22.76
2023-05-14T12:22:31.000Z,22.73
2023-05-14T12:24:57.450Z,22.77
2023-05-14T12:27:23.830Z,22.88
2023-05-14T12:29:50.226Z,23.33
2023-05-14T12:32:16.611Z,23.00
2023-05-14T12:34:43.146Z,23.03
2023-05-14T12:37:09.635Z,22.94
2023-05-14T12:39:35.990Z,22.47
2023-05-14T12:42:02.439Z,22.42
2023-05-14T12:44:28.938Z,22.64
2023-05-14T12:46:55.437Z,22.38
2023-05-14T12:49:21.846Z,22.45
2023-05-14T12:51:48.223Z,22.27
2023-05-14T12:54:14.599Z,22.53
2023-05-14T12:56:41.078Z,22.48
2023-05-14T12:59:07.521Z,22.88
2023-05-14T13:01:34.136Z,23.14
2023-05-14T13:04:00.852Z,23.20
2023-05-14T13:06:27.270Z,22.87
2023-05-14T13:08:53.727Z,21.85
2023-05-14T13:11:20.214Z,21.67
2023-05-14T13:13:46.609Z,20.60
2023-05-14T13:16:13.042Z,19.77
2023-05-14T13:18:39.485Z,19.70
2023-05-14T13:21:05.860Z,19.13
2023-05-14T13:23:32.254Z,18.99
2023-05-14T13:25:58.689Z,18.87
2023-05-14T13:28:25.081Z,18.75
2023-05-14T13:30:51.506Z,19.14
2023-05-14T13:33:17.987Z,19.26
2023-05-14T13:35:44.369Z,18.88
2023-05-14T13:38:10.750Z,18.71
2023-05-14T13:40:37.125Z,18.47
2023-05-14T13:43:03.567Z,18.79
2023-05-14T13:45:29.986Z,19.10
2023-05-14T13:47:56.616Z,19.36
2023-05-14T13:50:23.154Z,19.62
2023-05-14T13:52:49.587Z,19.86
2023-05-14T13:55:16.018Z,20.34
2023-05-14T13:57:42.532Z,20.21
2023-05-14T14:00:09.017Z,20.49
2023-05-14T14:02:35.437Z,20.47
2023-05-14T14:05:01.889Z,20.35
2023-05-14T14:07:28.462Z,20.94
2023-05-14T14:09:54.856Z,21.11
2023-05-14T14:12:21.315Z,21.36
2023-05-14T14:14:47.747Z,21.62
2023-05-14T14:17:14.166Z,21.91
2023-05-14T14:19:40.598Z,21.84
2023-05-14T14:22:07.131Z,21.97
2023-05-14T14:24:33.525Z,21.97
2023-05-14T14:26:59.952Z,21.29
2023-05-14T14:29:26.716Z,20.88
2023-05-14T14:31:53.163Z,20.07
2023-05-14T14:34:19.745Z,19.45
2023-05-14T14:36:46.127Z,19.81
2023-05-14T14:39:12.595Z,20.02
2023-05-14T14:41:39.131Z,20.79
2023-05-14T14:44:05.621Z,21.96
2023-05-14T14:46:32.243Z,21.51
2023-05-14T14:48:58.763Z,21.75
2023-05-14T14:51:25.166Z,21.21
2023-05-14T14:53:51.578Z,20.38
2023-05-14T14:56:17.978Z,20.59
2023-05-14T14:58:44.345Z,20.73
2023-05-14T15:01:10.828Z,20.70
2023-05-14T15:03:37.552Z,20.34
2023-05-14T15:06:04.193Z,20.70
2023-05-14T15:08:30.662Z,20.76
2023-05-14T15:10:57.060Z,21.08
2023-05-14T15:13:23.476Z,20.31
2023-05-14T15:15:50.023Z,21.01
2023-05-14T15:18:16.430Z,22.07
2023-05-14T15:20:42.865Z,21.42
2023-05-14T15:23:09.442Z,21.70
2023-05-14T15:25:35.824Z,21.58
2023-05-14T15:28:02.295Z,21.22
2023-05-14T15:30:28.712Z,20.98
2023-05-14T15:32:55.180Z,21.11
2023-05-14T15:35:21.703Z,21.10
2023-05-14T15:37:48.221Z,20.78
2023-05-14T15:40:14.664Z,20.73
2023-05-14T15:42:41.080Z,20.99
2023-05-14T15:45:07.530Z,21.20
2023-05-14T15:47:33.951Z,21.52
2023-05-14T15:50:00.539Z,21.72
2023-05-14T15:52:26.965Z,21.79
2023-05-14T15:54:53.340Z,21.82
2023-05-14T15:57:20.184Z,21.62
2023-05-14T15:59:46.640Z,21.62
2023-05-14T16:02:13.289Z,21.43
2023-05-14T16:04:39.718Z,20.80
2023-05-14T16:07:08.118Z,20.26
2023-05-14T16:09:35.991Z,19.69
2023-05-14T16:12:02.363Z,20.21
2023-05-14T16:14:28.728Z,22.14
2023-05-14T16:16:55.194Z,25.22
2023-05-14T16:19:21.842Z,26.43
2023-05-14T16:21:48.249Z,27.12
2023-05-14T16:24:14.668Z,28.68
2023-05-14T16:26:41.090Z,29.86
2023-05-14T16:29:07.500Z,30.44
2023-05-14T16:31:33.922Z,30.30
2023-05-14T16:34:00.302Z,27.08
2023-05-14T16:36:27.117Z,25.68
2023-05-14T16:39:06.708Z,24.64
2023-05-14T16:41:34.020Z,24.45
2023-05-14T16:44:00.539Z,24.10
2023-05-14T16:46:26.963Z,22.99
2023-05-14T16:48:53.536Z,23.37
2023-05-14T16:51:19.918Z,23.19
2023-05-14T16:53:46.399Z,22.98
2023-05-14T16:56:13.033Z,22.90
2023-05-14T16:58:39.528Z,22.54
2023-05-14T17:01:07.419Z,22.35
2023-05-14T17:03:35.795Z,22.39
2023-05-14T17:06:02.150Z,22.34
2023-05-14T17:08:28.701Z,22.18
2023-05-14T17:10:55.134Z,22.05
2023-05-14T17:13:21.538Z,21.37
2023-05-14T17:15:48.080Z,21.21
2023-05-14T17:18:14.536Z,20.88
2023-05-14T17:20:40.924Z,20.34
2023-05-14T17:23:07.334Z,20.33
2023-05-14T17:25:33.779Z,20.59
2023-05-14T17:28:00.380Z,20.52
2023-05-14T17:30:26.967Z,20.49
2023-05-14T17:32:53.403Z,20.37
2023-05-14T17:35:19.854Z,20.49
2023-05-14T17:37:46.268Z,20.48
2023-05-14T17:40:12.697Z,20.81
2023-05-14T17:42:40.259Z,20.44
2023-05-14T17:45:06.633Z,20.29
2023-05-14T17:47:33.102Z,20.55
2023-05-14T17:49:59.549Z,20.36
2023-05-14T17:52:25.929Z,20.49
2023-05-14T17:54:52.335Z,20.14
2023-05-14T17:57:18.799Z,20.14
2023-05-14T17:59:47.902Z,19.81
2023-05-14T18:02:14.289Z,19.85
2023-05-14T18:04:40.686Z,20.12
2023-05-14T18:07:07.348Z,20.37
2023-05-14T18:09:33.767Z,20.20
2023-05-14T18:12:00.224Z,20.20
2023-05-14T18:14:26.605Z,19.75
2023-05-14T18:16:53.049Z,19.79
2023-05-14T18:19:19.456Z,19.93
2023-05-14T18:21:45.825Z,20.15
2023-05-14T18:24:12.256Z,20.17
2023-05-14T18:26:38.671Z,19.98
2023-05-14T18:29:05.107Z,20.10
2023-05-14T18:31:31.574Z,19.73
2023-05-14T18:33:58.008Z,19.47
2023-05-14T18:36:24.397Z,19.63
2023-05-14T18:38:50.839Z,19.38
2023-05-14T18:41:17.276Z,19.13
2023-05-14T18:43:43.691Z,19.20
2023-05-14T18:46:10.138Z,19.48
2023-05-14T18:48:36.635Z,19.53
2023-05-14T18:51:03.056Z,19.35
2023-05-14T18:53:29.624Z,19.48
2023-05-14T18:55:56.077Z,19.56
2023-05-14T18:58:22.533Z,19.50
2023-05-14T19:00:49.038Z,19.53
2023-05-14T19:03:15.553Z,19.39
2023-05-14T19:05:42.008Z,19.36
2023-05-14T19:08:08.417Z,19.01
2023-05-14T19:10:34.886Z,18.73
2023-05-14T19:13:01.298Z,18.86
2023-05-14T19:15:27.700Z,19.04
2023-05-14T19:17:54.207Z,18.93
2023-05-14T19:20:20.751Z,18.86
2023-05-14T19:22:47.136Z,18.97
2023-05-14T19:25:13.554Z,19.02
2023-05-14T19:27:39.987Z,18.92
2023-05-14T19:30:06.434Z,18.97
2023-05-14T19:32:32.877Z,18.96
2023-05-14T19:34:59.275Z,18.91
2023-05-14T19:37:25.712Z,18.88
2023-05-14T19:39:52.369Z,18.79
2023-05-14T19:42:18.751Z,18.52
2023-05-14T19:44:45.141Z,18.60
2023-05-14T19:47:12.792Z,18.17
2023-05-14T19:49:39.189Z,18.20
2023-05-14T19:52:05.591Z,17.75
2023-05-14T19:54:32.089Z,17.72
2023-05-14T19:56:58.522Z,17.14
2023-05-14T19:59:24.896Z,17.38
2023-05-14T20:01:51.317Z,16.88
2023-05-14T20:04:17.685Z,16.31
2023-05-14T20:06:44.187Z,16.29
2023-05-14T20:09:10.558Z,16.21
2023-05-14T20:11:36.934Z,16.45
2023-05-14T20:14:03.335Z,16.57
2023-05-14T20:16:29.780Z,16.59
2023-05-14T20:18:56.352Z,16.63
2023-05-14T20:21:22.750Z,16.45
2023-05-14T20:23:49.167Z,16.11
2023-05-14T20:26:15.699Z,16.09
2023-05-14T20:28:42.210Z,16.05
2023-05-14T20:31:08.634Z,15.72
2023-05-14T20:33:35.034Z,15.93
2023-05-14T20:36:01.490Z,15.94
2023-05-14T20:38:27.888Z,15.87
2023-05-14T20:40:54.275Z,15.80
2023-05-14T20:43:20.649Z,15.96
2023-05-14T20:45:47.089Z,15.80
2023-05-14T20:48:13.516Z,15.92
2023-05-14T20:50:39.943Z,16.11
2023-05-14T20:53:06.454Z,15.90
2023-05-14T20:55:32.857Z,15.87
2023-05-14T20:57:59.273Z,15.97
2023-05-14T21:00:25.717Z,16.07
2023-05-14T21:02:52.179Z,16.09
2023-05-14T21:05:18.778Z,16.12
2023-05-14T21:07:45.225Z,15.99
2023-05-14T21:10:11.781Z,16.25
2023-05-14T21:12:38.265Z,16.24
2023-05-14T21:15:04.681Z,16.20
2023-05-14T21:17:31.097Z,16.28
2023-05-14T21:19:57.634Z,16.27
2023-05-14T21:22:24.023Z,16.33
2023-05-14T21:24:50.429Z,16.37
2023-05-14T21:27:16.873Z,16.35
2023-05-14T21:29:43.269Z,16.28
2023-05-14T21:32:09.656Z,16.36
2023-05-14T21:34:36.136Z,16.31
2023-05-14T21:37:02.669Z,16.28
2023-05-14T21:39:29.141Z,16.21
2023-05-14T21:41:55.541Z,15.83
2023-05-14T21:44:21.925Z,15.64
2023-05-14T21:46:48.361Z,15.82
2023-05-14T21:49:14.724Z,16.02
2023-05-14T21:51:41.107Z,15.83
2023-05-14T21:54:07.522Z,15.67
2023-05-14T21:56:33.889Z,15.44
2023-05-14T21:59:00.418Z,15.38
2023-05-14T22:01:26.854Z,15.31
2023-05-14T22:03:54.152Z,15.27
2023-05-14T22:06:21.497Z,15.24
2023-05-14T22:08:47.926Z,15.34
2023-05-14T22:11:14.305Z,15.56
2023-05-14T22:13:40.889Z,15.52
2023-05-14T22:16:12.627Z,15.49
2023-05-14T22:18:39.573Z,15.27
2023-05-14T22:21:06.081Z,15.14
2023-05-14T22:23:32.554Z,15.06
2023-05-14T22:25:58.993Z,15.20
2023-05-14T22:28:25.440Z,15.28
2023-05-14T22:30:51.883Z,15.68
2023-05-14T22:33:18.275Z,15.88
2023-05-14T22:35:44.654Z,16.01
2023-05-14T22:38:11.042Z,16.11
2023-05-14T22:40:37.490Z,16.18
2023-05-14T22:43:03.904Z,16.24
2023-05-14T22:45:30.323Z,16.30
2023-05-14T22:47:56.798Z,16.40
2023-05-14T22:50:23.199Z,16.32
2023-05-14T22:52:49.652Z,16.40
2023-05-14T22:55:18.795Z,16.52
2023-05-14T22:57:46.010Z,16.32
2023-05-14T23:00:12.468Z,16.17
2023-05-14T23:02:38.936Z,15.92
2023-05-14T23:05:05.382Z,15.87
2023-05-14T23:07:31.753Z,15.89
2023-05-14T23:09:58.221Z,15.89
2023-05-14T23:12:24.656Z,15.96
2023-05-14T23:14:51.032Z,16.23
2023-05-14T23:17:17.407Z,16.24
2023-05-14T23:19:43.795Z,15.97
2023-05-14T23:22:10.208Z,16.08
2023-05-14T23:24:36.608Z,15.91
2023-05-14T23:27:03.015Z,15.80
2023-05-14T23:29:29.398Z,15.90
2023-05-14T23:31:55.976Z,15.69
2023-05-14T23:34:22.492Z,15.80
2023-05-14T23:36:48.914Z,15.85
2023-05-14T23:39:15.305Z,15.77
2023-05-14T23:41:41.739Z,15.63
2023-05-14T23:44:08.150Z,15.39
2023-05-14T23:46:34.593Z,15.46
2023-05-14T23:49:00.987Z,15.52
2023-05-14T23:51:27.379Z,15.64
2023-05-14T23:53:53.915Z,15.63
2023-05-14T23:56:20.289Z,15.73
2023-05-14T23:58:46.676Z,15.83
